Aviation Digital Data Service (ADDS)

Output produced by TAFs form (0022 UTC 30 May 2015)
found at http://aviationweather.gov/adds/tafs/
 
KELP 292335Z 3000/3024 27005KT P6SM FEW120 FEW250 
     FM300300 VRB04KT P6SM SKC 
     FM301400 03014G24KT P6SM FEW030 SCT140 
     FM301700 09013KT P6SM SCT050 SCT140 BKN250 
     FM302300 08010KT P6SM SCT050 BKN140 BKN250